Time;durP1;ratioP1;P1;durP2;ratioP2;P2;SDS_P1;SDS_P2;PMS_P1;PMS_P2;Temp;Humidity;BMP_temperature;BMP_pressure;BME280_temperature;BME280_humidity;BME280_pressure;Samples;Min_cycle;Max_cycle;Signal;HPM_P1;HPM_P2
2023/04/05 05:02:51;;;;;;;10.93;7.93;;;-0.10;99.90;;;;;;5289618;23;20241;-73
2023/04/05 05:05:17;;;;;;;12.45;7.60;;;-0.10;99.90;;;;;;4908071;29;20259;-76
2023/04/05 05:07:43;;;;;;;14.88;8.07;;;-0.10;99.90;;;;;;4907404;29;20044;-75
2023/04/05 05:10:10;;;;;;;14.82;8.15;;;-0.10;99.90;;;;;;4905806;29;20100;-75
2023/04/05 05:12:37;;;;;;;14.07;8.65;;;-0.10;99.90;;;;;;4906203;29;20068;-76
2023/04/05 05:15:03;;;;;;;13.18;7.40;;;0.00;99.90;;;;;;4908063;29;20063;-76
2023/04/05 05:17:31;;;;;;;18.48;8.85;;;0.00;99.90;;;;;;4907099;29;20033;-74
2023/04/05 05:19:59;;;;;;;13.90;8.00;;;0.00;99.90;;;;;;4906737;29;20047;-74
2023/04/05 05:22:25;;;;;;;12.85;7.45;;;0.10;99.90;;;;;;4907211;29;20048;-74
2023/04/05 05:24:51;;;;;;;11.68;7.28;;;0.20;99.90;;;;;;4906333;29;20067;-74
2023/04/05 05:27:17;;;;;;;12.57;7.03;;;0.20;99.90;;;;;;4906949;29;20029;-74
2023/04/05 05:29:43;;;;;;;12.27;7.57;;;0.30;99.90;;;;;;4909268;29;20128;-75
2023/04/05 05:32:13;;;;;;;11.15;7.13;;;0.40;99.90;;;;;;4909551;29;20242;-75
2023/04/05 05:34:40;;;;;;;11.13;7.15;;;0.40;99.90;;;;;;4911576;29;20234;-75
2023/04/05 05:37:08;;;;;;;10.27;6.82;;;0.50;99.90;;;;;;4910474;29;20100;-74
2023/04/05 05:39:35;;;;;;;13.13;7.03;;;0.60;99.90;;;;;;4910349;29;20044;-74
2023/04/05 05:42:02;;;;;;;11.40;7.20;;;0.70;99.90;;;;;;4909848;29;20032;-74
2023/04/05 05:44:29;;;;;;;11.30;7.22;;;0.70;99.90;;;;;;4910669;29;20048;-74
2023/04/05 05:46:54;;;;;;;11.10;7.20;;;0.70;99.90;;;;;;4909473;29;20039;-75
2023/04/05 05:49:20;;;;;;;11.52;7.60;;;0.70;99.90;;;;;;4909968;29;20095;-77
2023/04/05 05:51:46;;;;;;;10.75;7.30;;;0.80;99.90;;;;;;4909726;29;20099;-73
2023/04/05 05:54:12;;;;;;;11.35;7.22;;;0.90;99.90;;;;;;4909616;29;20043;-75
2023/04/05 05:56:38;;;;;;;9.57;6.30;;;1.10;99.90;;;;;;4909930;29;20025;-74
2023/04/05 05:59:03;;;;;;;10.70;6.65;;;1.10;99.90;;;;;;4911122;29;20040;-73
2023/04/05 06:01:29;;;;;;;11.32;7.00;;;1.20;99.80;;;;;;4910164;29;20317;-75
2023/04/05 06:03:55;;;;;;;15.60;7.47;;;1.20;99.60;;;;;;4910398;29;20036;-73
2023/04/05 06:06:21;;;;;;;14.75;7.60;;;1.30;99.60;;;;;;4897322;29;20310;-74
2023/04/05 06:08:48;;;;;;;12.70;7.10;;;1.40;99.20;;;;;;4910718;29;20047;-76
2023/04/05 06:11:22;;;;;;;12.98;7.28;;;1.40;98.90;;;;;;4909771;29;20281;-73
2023/04/05 06:13:51;;;;;;;13.40;7.82;;;1.50;98.50;;;;;;4910938;29;20036;-75
2023/04/05 06:16:17;;;;;;;11.88;6.97;;;1.60;98.50;;;;;;4909987;29;20318;-73
2023/04/05 06:18:43;;;;;;;12.38;7.50;;;1.60;98.10;;;;;;4908077;29;20040;-74
2023/04/05 06:21:09;;;;;;;12.38;7.43;;;1.70;98.20;;;;;;4907685;29;20028;-76
2023/04/05 06:23:35;;;;;;;11.82;7.57;;;1.80;98.00;;;;;;4908249;29;20322;-76
2023/04/05 06:26:01;;;;;;;12.73;7.28;;;1.90;97.90;;;;;;4908721;29;20028;-71
2023/04/05 06:28:27;;;;;;;13.88;7.50;;;2.00;97.90;;;;;;4908739;29;20040;-72
2023/04/05 06:30:57;;;;;;;13.10;7.50;;;2.10;97.70;;;;;;4907602;29;20051;-71
2023/04/05 06:33:26;;;;;;;13.10;7.15;;;2.20;97.10;;;;;;4910219;29;20037;-74
2023/04/05 06:35:51;;;;;;;11.80;7.32;;;2.30;96.90;;;;;;4909991;29;20032;-75
2023/04/05 06:38:17;;;;;;;10.93;7.22;;;2.30;96.90;;;;;;4907866;29;20032;-76
2023/04/05 06:40:52;;;;;;;18.77;7.47;;;2.40;96.70;;;;;;4909332;29;20044;-76
2023/04/05 06:43:20;;;;;;;14.88;8.13;;;2.50;96.10;;;;;;4908867;29;20036;-77
2023/04/05 06:45:46;;;;;;;;;;;2.50;95.70;;;;;;4908373;29;20251;-78
2023/04/05 06:48:12;;;;;;;14.13;7.97;;;2.50;95.80;;;;;;4904877;29;19914;-76
2023/04/05 06:50:38;;;;;;;14.85;7.88;;;2.50;95.40;;;;;;4890026;29;20040;-75
2023/04/05 06:53:03;;;;;;;14.77;7.93;;;2.50;95.30;;;;;;4889255;29;20032;-72
2023/04/05 06:55:30;;;;;;;13.40;7.95;;;2.50;95.20;;;;;;4889001;29;20304;-75
2023/04/05 06:57:55;;;;;;;13.93;7.57;;;2.50;95.00;;;;;;4902022;29;20036;-74
2023/04/05 07:00:21;;;;;;;13.35;7.90;;;2.60;95.00;;;;;;4899007;29;20258;-73
2023/04/05 07:02:47;;;;;;;13.20;8.45;;;2.70;94.80;;;;;;4908123;29;20096;-74
2023/04/05 07:05:13;;;;;;;15.65;7.93;;;2.80;94.60;;;;;;4908184;29;20340;-75
2023/04/05 07:07:47;;;;;;;15.32;8.02;;;2.80;94.40;;;;;;4908680;29;20189;-72
2023/04/05 07:10:13;;;;;;;11.80;7.82;;;3.00;94.40;;;;;;4908210;29;20036;-74
2023/04/05 07:12:39;;;;;;;16.27;7.85;;;3.20;94.20;;;;;;4908216;29;20043;-76
2023/04/05 07:15:06;;;;;;;14.95;8.70;;;3.30;93.40;;;;;;4906860;29;20225;-74
2023/04/05 07:17:31;;;;;;;17.83;9.05;;;3.40;93.10;;;;;;4908354;29;20032;-74
2023/04/05 07:19:57;;;;;;;18.63;9.18;;;3.60;92.80;;;;;;4906133;29;20048;-74
2023/04/05 07:22:23;;;;;;;14.90;8.15;;;3.60;92.90;;;;;;4907747;29;20374;-74
2023/04/05 07:24:48;;;;;;;15.98;8.48;;;3.70;92.40;;;;;;4908109;29;20314;-73
2023/04/05 07:27:14;;;;;;;12.95;8.35;;;3.70;91.80;;;;;;4906503;29;20025;-77
2023/04/05 07:29:42;;;;;;;15.85;8.93;;;3.70;92.00;;;;;;4907945;29;20294;-73
2023/04/05 07:32:08;;;;;;;17.45;9.38;;;3.90;91.60;;;;;;4907493;29;20358;-75
2023/04/05 07:34:35;;;;;;;15.35;8.50;;;4.00;91.20;;;;;;4907487;29;20100;-72
2023/04/05 07:37:02;;;;;;;17.45;9.43;;;4.20;91.00;;;;;;4907374;29;20024;-75
2023/04/05 07:39:27;;;;;;;15.88;9.23;;;4.30;90.50;;;;;;4908648;29;20033;-75
2023/04/05 07:41:53;;;;;;;16.58;9.57;;;4.30;90.60;;;;;;4908334;29;20065;-74
2023/04/05 07:44:19;;;;;;;17.42;10.15;;;4.30;90.70;;;;;;4907460;29;20118;-72
2023/04/05 07:46:45;;;;;;;19.85;10.05;;;4.50;90.60;;;;;;4908605;29;20049;-71
2023/04/05 07:49:11;;;;;;;20.50;10.95;;;4.50;90.30;;;;;;4909047;29;20040;-73
2023/04/05 07:51:37;;;;;;;20.77;10.43;;;4.50;90.70;;;;;;4908623;29;20040;-74
2023/04/05 07:54:06;;;;;;;18.65;11.20;;;4.70;90.40;;;;;;4906425;29;20026;-73
2023/04/05 07:56:31;;;;;;;25.40;11.38;;;4.80;89.70;;;;;;4907442;29;20021;-72
2023/04/05 07:58:58;;;;;;;21.38;10.05;;;4.90;89.60;;;;;;4907223;29;20337;-73
2023/04/05 08:01:27;;;;;;;20.15;11.05;;;4.90;89.60;;;;;;4905821;29;20035;-73
2023/04/05 08:03:54;;;;;;;16.60;9.65;;;5.00;88.80;;;;;;4907948;29;20048;-76
2023/04/05 08:06:20;;;;;;;18.13;9.90;;;5.10;87.70;;;;;;4890180;29;20024;-75
2023/04/05 08:08:46;;;;;;;17.30;10.18;;;5.10;87.00;;;;;;4905525;29;20096;-70
2023/04/05 08:11:12;;;;;;;17.05;9.90;;;5.20;86.60;;;;;;4907419;29;20040;-71
2023/04/05 08:13:40;;;;;;;16.88;9.45;;;5.30;85.10;;;;;;4910481;29;20032;-72
2023/04/05 08:16:10;;;;;;;16.00;8.95;;;5.30;84.20;;;;;;4910176;29;20056;-74
2023/04/05 08:18:37;;;;;;;16.42;8.95;;;5.40;84.60;;;;;;4906878;29;20267;-73
2023/04/05 08:21:07;;;;;;;18.38;9.48;;;5.60;83.30;;;;;;4907476;29;20092;-74
2023/04/05 08:23:39;;;;;;;14.70;8.15;;;5.50;83.20;;;;;;4907275;29;20064;-73
2023/04/05 08:26:06;;;;;;;15.50;8.18;;;5.60;83.00;;;;;;4906537;29;20036;-72
2023/04/05 08:28:35;;;;;;;18.17;8.27;;;5.70;81.90;;;;;;4905934;29;20254;-74
2023/04/05 08:31:01;;;;;;;12.30;8.15;;;5.70;80.90;;;;;;4906457;29;20135;-72
2023/04/05 08:33:33;;;;;;;12.95;8.00;;;5.50;80.60;;;;;;4894224;29;20046;-73
2023/04/05 08:36:05;;;;;;;12.45;7.07;;;5.70;80.90;;;;;;4899127;29;20194;-74
2023/04/05 08:38:34;;;;;;;10.35;6.50;;;5.70;80.50;;;;;;4906733;29;20043;-72
2023/04/05 08:41:16;;;;;;;15.05;7.57;;;5.80;78.90;;;;;;4906814;29;20024;-72
2023/04/05 08:43:59;;;;;;;12.57;6.93;;;5.90;78.30;;;;;;4900618;29;20033;-74
2023/04/05 08:46:30;;;;;;;10.63;6.53;;;6.10;78.70;;;;;;4901014;29;20237;-74
2023/04/05 08:49:00;;;;;;;10.93;6.25;;;6.20;78.30;;;;;;4905536;29;20025;-74
2023/04/05 08:51:41;;;;;;;9.85;6.00;;;6.20;76.30;;;;;;4906867;29;20040;-75
2023/04/05 08:54:10;;;;;;;11.35;6.63;;;6.30;76.60;;;;;;4906328;29;20037;-73
2023/04/05 08:56:53;;;;;;;12.35;7.05;;;6.50;75.80;;;;;;4894940;29;20032;-75
2023/04/05 08:59:22;;;;;;;10.15;5.55;;;6.50;75.40;;;;;;4904870;29;20041;-75
2023/04/05 09:01:54;;;;;;;8.13;5.07;;;6.50;74.60;;;;;;4905257;29;20247;-76
2023/04/05 09:04:26;;;;;;;7.40;4.53;;;6.60;73.20;;;;;;4909075;29;20344;-74
2023/04/05 09:06:58;;;;;;;10.63;5.97;;;6.70;71.80;;;;;;4899643;29;20036;-74
2023/04/05 09:09:30;;;;;;;8.88;5.00;;;6.60;71.80;;;;;;4901980;29;20040;-77
2023/04/05 09:12:00;;;;;;;7.13;4.80;;;6.70;72.10;;;;;;4909285;29;20036;-76
2023/04/05 09:14:28;;;;;;;7.30;4.30;;;6.90;71.90;;;;;;4893183;29;20048;-75
2023/04/05 09:16:54;;;;;;;9.80;5.03;;;7.10;69.70;;;;;;4904565;29;20044;-73
2023/04/05 09:19:29;;;;;;;7.80;4.07;;;7.10;68.70;;;;;;4901081;29;20044;-76
2023/04/05 09:22:12;;;;;;;8.32;4.15;;;7.10;69.10;;;;;;4909938;29;20021;-75
2023/04/05 09:24:45;;;;;;;7.25;4.30;;;7.10;68.50;;;;;;4893749;29;20036;-76
2023/04/05 09:27:22;;;;;;;6.53;4.15;;;7.20;68.30;;;;;;4901776;29;20207;-74
2023/04/05 09:30:16;;;;;;;8.60;3.83;;;7.20;67.70;;;;;;4904560;29;20054;-75
2023/04/05 09:32:49;;;;;;;7.03;3.85;;;7.50;66.80;;;;;;4898150;29;20041;-75
2023/04/05 09:35:28;;;;;;;6.95;4.20;;;7.50;66.90;;;;;;4907821;29;20056;-76
2023/04/05 09:38:02;;;;;;;8.10;3.58;;;7.60;66.50;;;;;;4909455;29;20032;-75
2023/04/05 09:40:51;;;;;;;6.00;3.25;;;7.80;66.90;;;;;;4884753;29;20108;-75
2023/04/05 09:43:39;;;;;;;5.97;2.92;;;8.00;64.50;;;;;;4905288;29;20036;-74
2023/04/05 09:46:06;;;;;;;10.00;3.70;;;8.10;64.00;;;;;;4907837;29;20037;-76
2023/04/05 09:48:51;;;;;;;5.22;3.00;;;8.20;64.70;;;;;;4909603;29;20213;-75
2023/04/05 09:51:17;;;;;;;7.28;2.97;;;8.20;64.10;;;;;;4907773;29;20326;-74
2023/04/05 09:54:15;;;;;;;5.68;3.13;;;8.40;63.40;;;;;;4909376;29;20028;-73
2023/04/05 09:56:55;;;;;;;7.93;3.03;;;8.40;62.80;;;;;;4858727;29;20223;-77
2023/04/05 09:59:21;;;;;;;4.40;2.97;;;8.50;63.90;;;;;;4901912;29;20344;-77
2023/04/05 10:01:51;;;;;;;8.10;3.40;;;8.60;63.20;;;;;;4894768;29;20052;-75
2023/04/05 10:04:21;;;;;;;5.80;3.13;;;8.50;63.30;;;;;;4908704;29;20105;-76
2023/04/05 10:06:47;;;;;;;9.02;3.30;;;8.40;62.60;;;;;;4909208;29;20287;-73
2023/04/05 10:09:14;;;;;;;5.25;3.42;;;8.50;63.00;;;;;;4902942;29;20036;-72
2023/04/05 10:11:42;;;;;;;6.20;3.20;;;8.70;63.50;;;;;;4909041;29;20084;-72
2023/04/05 10:14:08;;;;;;;4.63;3.40;;;8.70;63.20;;;;;;4907470;29;20319;-73
2023/04/05 10:16:46;;;;;;;5.78;3.88;;;8.80;63.00;;;;;;4907945;29;20036;-74
2023/04/05 10:19:36;;;;;;;6.32;4.30;;;9.00;63.60;;;;;;4908541;29;20240;-76
2023/04/05 10:22:05;;;;;;;7.50;4.78;;;8.80;63.60;;;;;;4909254;29;20044;-75
2023/04/05 10:24:50;;;;;;;6.15;4.30;;;8.50;63.50;;;;;;4908622;29;20341;-74
2023/04/05 10:27:27;;;;;;;6.53;4.50;;;8.20;63.80;;;;;;4900500;29;20035;-74
2023/04/05 10:30:03;;;;;;;7.00;3.75;;;8.40;64.50;;;;;;4908866;29;20035;-75
2023/04/05 10:32:50;;;;;;;8.30;4.70;;;8.50;64.40;;;;;;4907972;29;20048;-74
2023/04/05 10:35:23;;;;;;;6.75;4.13;;;8.60;64.00;;;;;;4911874;29;20028;-74
2023/04/05 10:37:58;;;;;;;6.82;3.92;;;8.50;63.90;;;;;;4907225;29;20032;-73
2023/04/05 10:40:29;;;;;;;5.72;3.92;;;8.60;63.70;;;;;;4908191;29;20346;-74
2023/04/05 10:42:55;;;;;;;6.18;4.32;;;8.60;63.30;;;;;;4907149;29;20048;-75
2023/04/05 10:45:22;;;;;;;7.82;3.92;;;8.60;63.10;;;;;;4907202;29;20035;-75
2023/04/05 10:47:56;;;;;;;5.13;4.13;;;8.80;62.70;;;;;;4908828;29;20024;-75
2023/04/05 10:50:31;;;;;;;6.47;4.00;;;8.90;63.20;;;;;;4908052;29;20047;-75
2023/04/05 10:52:59;;;;;;;5.53;3.90;;;8.90;62.30;;;;;;4907507;29;20035;-75
2023/04/05 10:55:25;;;;;;;5.70;3.63;;;9.00;62.00;;;;;;4908162;29;20035;-79
2023/04/05 10:57:53;;;;;;;5.35;3.67;;;9.20;62.00;;;;;;4906563;29;20048;-73
2023/04/05 11:00:21;;;;;;;7.57;3.72;;;9.50;61.20;;;;;;4907067;29;20033;-75
2023/04/05 11:02:52;;;;;;;14.77;3.87;;;9.70;61.20;;;;;;4891136;29;20064;-75
2023/04/05 11:05:32;;;;;;;8.13;3.88;;;10.00;60.60;;;;;;4907748;29;20028;-74
2023/04/05 11:08:10;;;;;;;8.07;3.40;;;10.00;59.80;;;;;;4906350;29;20045;-75
2023/04/05 11:10:38;;;;;;;6.03;3.50;;;10.30;60.30;;;;;;4908147;29;20032;-75
2023/04/05 11:13:06;;;;;;;4.30;3.28;;;10.60;59.30;;;;;;4891407;29;20339;-74
2023/04/05 11:15:35;;;;;;;5.80;3.57;;;10.80;58.50;;;;;;4907207;29;20048;-75
2023/04/05 11:18:27;;;;;;;5.32;3.22;;;11.00;58.10;;;;;;4901514;29;20048;-76
2023/04/05 11:21:04;;;;;;;4.78;3.10;;;11.60;57.70;;;;;;4888097;29;20054;-76
2023/04/05 11:23:30;;;;;;;4.93;3.35;;;12.40;56.70;;;;;;4895186;29;20040;-76
2023/04/05 11:26:05;;;;;;;4.63;2.78;;;13.00;55.30;;;;;;4906530;29;20052;-75
2023/04/05 11:28:36;;;;;;;6.03;2.97;;;14.40;53.20;;;;;;4906399;29;20064;-75
2023/04/05 11:31:17;;;;;;;5.78;2.97;;;15.00;53.00;;;;;;4907683;29;20085;-74
2023/04/05 11:33:48;;;;;;;7.25;3.03;;;15.60;51.80;;;;;;4900423;29;20075;-75
2023/04/05 11:36:35;;;;;;;4.47;2.72;;;16.50;51.20;;;;;;4903902;29;20036;-76
2023/04/05 11:39:22;;;;;;;4.93;2.90;;;17.30;48.90;;;;;;4907718;29;20267;-76
2023/04/05 11:42:00;;;;;;;3.97;2.70;;;17.30;47.60;;;;;;4906189;29;20043;-76
2023/04/05 11:44:26;;;;;;;5.13;2.95;;;17.20;49.20;;;;;;4890342;29;20195;-75
2023/04/05 11:46:55;;;;;;;4.85;2.90;;;17.30;46.60;;;;;;4907216;29;20033;-73
2023/04/05 11:49:25;;;;;;;3.90;2.40;;;16.90;46.80;;;;;;4907099;29;20091;-74
2023/04/05 11:51:52;;;;;;;4.18;2.83;;;16.50;49.20;;;;;;4890918;29;20068;-73
2023/04/05 11:54:31;;;;;;;7.82;2.80;;;18.00;47.80;;;;;;4905810;29;20084;-74
2023/04/05 11:56:57;;;;;;;4.18;2.45;;;18.90;46.30;;;;;;4900827;29;20033;-75
2023/04/05 11:59:34;;;;;;;3.95;2.50;;;19.10;45.80;;;;;;4900159;29;20074;-75
2023/04/05 12:02:06;;;;;;;4.45;2.65;;;18.60;45.10;;;;;;4890160;29;20063;-74
2023/04/05 12:04:33;;;;;;;4.72;2.60;;;19.90;46.30;;;;;;4904943;29;20045;-75
2023/04/05 12:07:16;;;;;;;4.88;2.83;;;21.10;44.10;;;;;;4892300;29;20025;-75
2023/04/05 12:10:03;;;;;;;4.22;2.42;;;20.50;43.30;;;;;;4904595;29;20037;-78
2023/04/05 12:12:34;;;;;;;5.88;2.97;;;20.80;44.20;;;;;;4906699;29;20296;-74
2023/04/05 12:15:01;;;;;;;5.45;2.60;;;20.20;42.80;;;;;;4906887;29;20028;-74
2023/04/05 12:17:56;;;;;;;4.07;2.83;;;19.50;43.40;;;;;;4894617;29;20235;-76
2023/04/05 12:20:23;;;;;;;4.00;2.75;;;19.20;45.00;;;;;;4887744;29;20056;-74
2023/04/05 12:22:55;;;;;;;5.00;2.77;;;19.80;44.00;;;;;;4907122;29;20048;-73
2023/04/05 12:25:22;;;;;;;4.05;2.60;;;20.30;47.70;;;;;;4906547;29;20047;-75
2023/04/05 12:27:47;;;;;;;4.07;2.38;;;21.60;43.30;;;;;;4906796;29;20056;-77
2023/04/05 12:30:21;;;;;;;4.72;2.65;;;22.50;42.50;;;;;;4897876;29;20020;-75
2023/04/05 12:32:50;;;;;;;5.00;2.60;;;22.70;41.30;;;;;;4901853;29;20036;-75
2023/04/05 12:35:21;;;;;;;6.20;2.70;;;22.00;41.30;;;;;;4906065;29;20037;-74
2023/04/05 12:37:52;;;;;;;4.70;2.72;;;20.90;41.30;;;;;;4905143;29;20033;-75
2023/04/05 12:40:21;;;;;;;4.20;2.33;;;21.40;42.60;;;;;;4906657;29;20044;-76
2023/04/05 12:42:48;;;;;;;5.03;2.45;;;22.30;41.20;;;;;;4905812;29;20044;-75
2023/04/05 12:45:17;;;;;;;;;;;22.60;41.20;;;;;;4905426;29;20120;-75
2023/04/05 12:48:12;;;;;;;4.10;2.70;;;23.20;40.50;;;;;;4906695;29;19908;-75
2023/04/05 12:50:43;;;;;;;5.28;2.50;;;23.40;40.80;;;;;;4898730;29;20044;-74
2023/04/05 12:53:16;;;;;;;4.55;2.72;;;23.80;39.50;;;;;;4905666;29;20040;-74
2023/04/05 12:56:05;;;;;;;4.07;2.60;;;22.60;40.20;;;;;;4905576;29;20033;-75
2023/04/05 12:58:36;;;;;;;4.55;2.67;;;23.70;40.30;;;;;;4905805;29;20055;-74
2023/04/05 13:01:26;;;;;;;4.70;2.58;;;23.90;39.30;;;;;;4906127;29;20089;-75
2023/04/05 13:03:52;;;;;;;4.30;2.80;;;24.70;39.40;;;;;;4905675;29;20048;-74
2023/04/05 13:06:18;;;;;;;3.78;2.30;;;25.10;38.20;;;;;;4905741;29;20036;-76
2023/04/05 13:08:43;;;;;;;4.90;2.50;;;26.00;38.60;;;;;;4906238;29;20088;-75
2023/04/05 13:11:15;;;;;;;6.55;2.40;;;25.40;38.30;;;;;;4905146;29;20041;-75
2023/04/05 13:13:43;;;;;;;5.60;2.75;;;25.60;38.80;;;;;;4905340;29;20037;-74
2023/04/05 13:16:09;;;;;;;3.95;2.40;;;24.60;38.20;;;;;;4905347;29;20033;-77
2023/04/05 13:18:36;;;;;;;6.40;2.85;;;24.50;39.80;;;;;;4904438;29;20036;-76
2023/04/05 13:21:06;;;;;;;3.53;2.60;;;25.00;38.90;;;;;;4906402;29;20037;-75
2023/04/05 13:23:36;;;;;;;3.53;2.65;;;24.70;38.20;;;;;;4905942;29;20032;-74
2023/04/05 13:26:03;;;;;;;4.03;2.33;;;25.50;38.50;;;;;;4906580;29;20084;-73
2023/04/05 13:28:29;;;;;;;4.05;2.70;;;26.40;37.00;;;;;;4905962;29;20052;-72
2023/04/05 13:30:54;;;;;;;6.13;2.80;;;26.70;37.40;;;;;;4906296;29;20033;-73
2023/04/05 13:36:18;;;;;;;3.97;2.20;;;26.40;36.90;;;;;;4901498;29;20111;-75
2023/04/05 13:39:04;;;;;;;4.25;2.92;;;26.80;39.10;;;;;;4905874;29;20144;-73
2023/04/05 13:41:36;;;;;;;3.72;2.30;;;27.30;36.80;;;;;;4905518;29;20040;-74
2023/04/05 13:44:01;;;;;;;4.78;3.13;;;27.50;38.20;;;;;;4905895;29;20036;-74
2023/04/05 13:46:40;;;;;;;5.35;2.67;;;28.40;36.90;;;;;;4904399;29;20076;-74
2023/04/05 13:49:07;;;;;;;4.53;2.50;;;28.60;36.50;;;;;;4907683;29;20051;-73
2023/04/05 13:51:40;;;;;;;6.37;2.63;;;28.70;35.50;;;;;;4892516;29;20262;-74
2023/04/05 13:54:57;;;;;;;4.20;2.78;;;28.20;35.90;;;;;;4908115;29;20024;-74
2023/04/05 13:57:23;;;;;;;5.30;2.95;;;28.40;38.00;;;;;;4909065;29;20064;-73
2023/04/05 13:59:55;;;;;;;3.72;2.65;;;28.30;36.30;;;;;;4909435;29;20085;-73
2023/04/05 14:02:25;;;;;;;4.78;2.85;;;28.90;35.00;;;;;;4908411;29;20036;-73
2023/04/05 14:07:45;;;;;;;5.10;2.08;;;28.20;36.30;;;;;;4909455;29;20284;-73
2023/04/05 14:10:11;;;;;;;4.28;2.53;;;28.80;36.20;;;;;;4909265;29;20029;-72
2023/04/05 14:12:37;;;;;;;4.80;2.60;;;29.90;34.80;;;;;;4907928;29;20323;-75
2023/04/05 14:15:10;;;;;;;4.20;2.70;;;29.80;37.80;;;;;;4909769;29;20091;-74
2023/04/05 14:17:36;;;;;;;3.65;2.60;;;29.60;34.70;;;;;;4907614;29;20040;-75
2023/04/05 14:20:01;;;;;;;4.03;2.75;;;29.40;35.10;;;;;;4908503;29;20136;-74
2023/04/05 14:22:28;;;;;;;5.13;2.65;;;29.70;37.50;;;;;;4908447;29;20181;-74
2023/04/05 14:24:54;;;;;;;5.78;2.80;;;30.30;34.50;;;;;;4908040;29;20329;-74
2023/04/05 14:27:27;;;;;;;3.67;2.50;;;27.80;35.10;;;;;;4910491;29;20096;-73
2023/04/05 14:30:05;;;;;;;4.95;2.67;;;27.70;38.20;;;;;;4911080;29;20040;-73
2023/04/05 14:32:31;;;;;;;2.63;2.15;;;29.40;34.30;;;;;;4914593;29;20048;-74
2023/04/05 14:34:56;;;;;;;7.53;3.22;;;30.60;37.60;;;;;;4909898;29;20239;-75
2023/04/05 14:37:22;;;;;;;4.53;2.35;;;31.50;35.90;;;;;;4908740;29;20099;-74
2023/04/05 14:39:49;;;;;;;3.72;2.78;;;31.40;36.40;;;;;;4907075;29;20033;-74
2023/04/05 14:45:12;;;;;;;3.75;2.50;;;31.10;34.30;;;;;;4899420;29;20072;-75
2023/04/05 14:47:38;;;;;;;4.82;2.72;;;30.90;33.80;;;;;;4908239;29;20067;-75
2023/04/05 14:50:07;;;;;;;4.28;2.53;;;29.80;33.80;;;;;;4908999;29;20024;-76
2023/04/05 14:52:41;;;;;;;3.65;2.55;;;29.20;34.60;;;;;;4907144;29;20172;-74
2023/04/05 14:55:11;;;;;;;5.50;2.53;;;29.10;34.20;;;;;;4908632;29;20287;-75
2023/04/05 14:57:43;;;;;;;4.93;2.65;;;29.10;34.40;;;;;;4907771;29;20020;-73
2023/04/05 15:00:10;;;;;;;4.15;2.50;;;28.80;34.00;;;;;;4907431;29;20378;-75
2023/04/05 15:02:36;;;;;;;3.63;2.83;;;28.40;35.20;;;;;;4907581;29;20059;-73
2023/04/05 15:05:09;;;;;;;4.47;2.63;;;29.30;34.40;;;;;;4908312;29;20103;-74
2023/04/05 15:07:35;;;;;;;4.90;3.00;;;29.70;34.40;;;;;;4907458;29;20434;-73
2023/04/05 15:10:10;;;;;;;3.90;2.47;;;29.10;34.20;;;;;;4908184;29;20021;-73
2023/04/05 15:12:45;;;;;;;3.40;2.50;;;29.70;34.40;;;;;;4906258;29;20372;-73
2023/04/05 15:15:11;;;;;;;6.40;2.90;;;29.20;35.70;;;;;;4908129;29;20180;-73
2023/04/05 15:17:36;;;;;;;4.53;2.78;;;29.80;34.40;;;;;;4907398;29;20099;-74
2023/04/05 15:20:12;;;;;;;3.90;2.60;;;29.50;34.80;;;;;;4907871;29;20025;-74
2023/04/05 15:22:39;;;;;;;4.65;3.05;;;29.70;34.20;;;;;;4907492;29;20046;-76
2023/04/05 15:25:07;;;;;;;5.72;3.00;;;29.10;33.20;;;;;;4907001;29;20078;-73
2023/04/05 15:27:33;;;;;;;4.50;2.85;;;30.00;33.70;;;;;;4890937;29;20029;-74
2023/04/05 15:30:00;;;;;;;4.88;2.72;;;29.50;34.00;;;;;;4906890;29;20318;-74
2023/04/05 15:32:32;;;;;;;5.10;2.70;;;29.40;33.60;;;;;;4907287;29;20095;-75
2023/04/05 15:35:02;;;;;;;4.55;2.50;;;28.90;34.30;;;;;;4906545;29;20036;-74
2023/04/05 15:37:28;;;;;;;3.38;2.50;;;29.40;35.10;;;;;;4906185;29;20029;-74
2023/04/05 15:39:55;;;;;;;;;;;30.20;33.60;;;;;;4907238;29;20349;-73
2023/04/05 15:42:22;;;;;;;3.92;2.80;;;29.90;33.20;;;;;;4906885;29;19998;-73
2023/04/05 15:44:49;;;;;;;3.60;2.63;;;29.10;34.30;;;;;;4905728;29;20084;-74
2023/04/05 15:47:16;;;;;;;4.22;2.38;;;28.90;33.80;;;;;;4906377;29;20043;-76
2023/04/05 15:49:43;;;;;;;3.92;2.70;;;29.30;34.60;;;;;;4905816;29;20028;-74
2023/04/05 15:52:11;;;;;;;3.20;2.20;;;29.50;33.10;;;;;;4907393;29;20090;-75
2023/04/05 15:54:37;;;;;;;3.97;2.45;;;29.90;35.20;;;;;;4906719;29;20099;-74
2023/04/05 15:57:03;;;;;;;4.25;2.28;;;30.30;32.80;;;;;;4907397;29;20198;-74
2023/04/05 15:59:49;;;;;;;4.13;2.40;;;29.60;34.50;;;;;;4905765;29;20051;-74
2023/04/05 16:02:15;;;;;;;3.92;2.58;;;29.20;33.70;;;;;;4906733;29;20044;-74
2023/04/05 16:04:44;;;;;;;3.67;2.63;;;29.40;36.20;;;;;;4906903;29;20047;-74
2023/04/05 16:07:10;;;;;;;3.45;2.47;;;28.60;34.70;;;;;;4907238;29;20322;-75
2023/04/05 16:09:36;;;;;;;4.97;2.67;;;28.90;34.50;;;;;;4906645;29;20080;-75
2023/04/05 16:12:02;;;;;;;3.67;2.38;;;28.90;33.60;;;;;;4905349;29;20021;-75
2023/04/05 16:14:28;;;;;;;3.97;2.35;;;29.20;35.80;;;;;;4906737;29;20051;-77
2023/04/05 16:16:54;;;;;;;3.95;2.20;;;28.90;34.60;;;;;;4907203;29;20056;-74
2023/04/05 16:19:20;;;;;;;3.33;2.38;;;29.50;33.90;;;;;;4906891;29;20028;-75
2023/04/05 16:21:46;;;;;;;4.15;1.90;;;29.30;34.60;;;;;;4907139;29;20051;-76
2023/04/05 16:24:12;;;;;;;3.47;2.22;;;29.30;35.90;;;;;;4906010;29;20032;-76
2023/04/05 16:26:37;;;;;;;3.50;2.17;;;28.90;33.60;;;;;;4906391;29;20099;-75
2023/04/05 16:29:03;;;;;;;3.17;2.42;;;28.60;33.70;;;;;;4906654;29;20310;-74
2023/04/05 16:31:35;;;;;;;3.70;2.40;;;28.10;33.60;;;;;;4906761;29;20433;-76
2023/04/05 16:34:04;;;;;;;3.75;2.40;;;27.70;34.20;;;;;;4905802;29;20035;-75
2023/04/05 16:36:35;;;;;;;3.65;2.42;;;27.30;34.10;;;;;;4906184;29;20036;-75
2023/04/05 16:39:01;;;;;;;4.72;2.50;;;26.80;35.30;;;;;;4906628;29;20076;-75
2023/04/05 16:41:36;;;;;;;3.45;2.25;;;26.60;34.80;;;;;;4906425;29;20029;-75
2023/04/05 16:44:02;;;;;;;4.18;2.70;;;26.80;34.80;;;;;;4905880;29;20036;-75
2023/04/05 16:46:45;;;;;;;4.13;2.63;;;26.70;36.10;;;;;;4904765;29;20054;-75
2023/04/05 16:49:14;;;;;;;4.30;2.90;;;26.90;36.50;;;;;;4906555;29;20032;-74
2023/04/05 16:51:49;;;;;;;4.15;2.42;;;26.50;33.70;;;;;;4904410;29;20036;-76
2023/04/05 16:54:18;;;;;;;4.72;2.90;;;26.40;36.70;;;;;;4906653;29;20366;-77
2023/04/05 16:56:56;;;;;;;3.90;3.08;;;25.90;35.20;;;;;;4906335;29;20028;-75
2023/04/05 16:59:22;;;;;;;;;;;25.10;35.10;;;;;;4907062;29;20267;-76
2023/04/05 17:01:47;;;;;;;6.55;3.67;;;25.10;35.80;;;;;;4905850;29;19907;-75
2023/04/05 17:04:13;;;;;;;4.35;3.38;;;23.90;36.10;;;;;;4905694;29;20085;-75
2023/04/05 17:06:42;;;;;;;5.15;3.33;;;21.90;37.40;;;;;;4905701;29;20101;-74
2023/04/05 17:09:17;;;;;;;5.45;3.58;;;20.20;39.20;;;;;;4906176;29;20104;-75
2023/04/05 17:11:47;;;;;;;6.35;3.70;;;18.90;42.10;;;;;;4904716;29;20052;-75
2023/04/05 17:14:16;;;;;;;4.65;3.63;;;17.60;41.80;;;;;;4906451;29;20025;-74
2023/04/05 17:16:51;;;;;;;4.15;3.33;;;16.40;44.40;;;;;;4905920;29;20024;-76
2023/04/05 17:19:41;;;;;;;5.30;3.78;;;15.80;44.10;;;;;;4906511;29;20100;-77
2023/04/05 17:22:09;;;;;;;4.95;3.53;;;15.60;47.10;;;;;;4896553;29;20396;-74
2023/04/05 17:24:36;;;;;;;5.85;3.67;;;15.10;47.10;;;;;;4907338;29;20091;-75
2023/04/05 17:27:03;;;;;;;7.95;3.92;;;14.80;47.40;;;;;;4910220;29;20046;-75
2023/04/05 17:29:35;;;;;;;5.65;3.78;;;14.50;46.90;;;;;;4908356;29;20039;-75
2023/04/05 17:32:01;;;;;;;6.18;3.85;;;14.10;46.80;;;;;;4908730;29;20020;-76
2023/04/05 17:34:27;;;;;;;5.50;3.80;;;14.00;48.40;;;;;;4909299;29;20035;-77
2023/04/05 17:36:53;;;;;;;7.30;3.80;;;13.90;47.70;;;;;;4893287;29;20025;-76
2023/04/05 17:39:19;;;;;;;6.47;4.20;;;13.50;48.70;;;;;;4910091;29;20055;-75
2023/04/05 17:41:45;;;;;;;7.75;4.38;;;13.20;48.30;;;;;;4908490;29;20345;-75
2023/04/05 17:44:18;;;;;;;6.88;3.83;;;12.90;49.20;;;;;;4888893;29;20373;-75
2023/04/05 17:46:44;;;;;;;7.53;4.57;;;12.50;49.40;;;;;;4928182;29;20047;-77
2023/04/05 17:49:10;;;;;;;5.60;3.78;;;12.10;50.30;;;;;;4927624;29;20040;-75
2023/04/05 17:51:36;;;;;;;7.55;3.65;;;11.80;50.60;;;;;;4927035;29;20043;-74
2023/04/05 17:54:02;;;;;;;9.15;4.40;;;11.60;51.80;;;;;;4911799;29;20084;-75
2023/04/05 17:56:28;;;;;;;7.45;4.63;;;11.50;52.20;;;;;;4911096;29;20067;-76
2023/04/05 17:58:54;;;;;;;8.48;4.70;;;11.50;52.40;;;;;;4908817;29;20028;-77
2023/04/05 18:01:20;;;;;;;7.30;4.95;;;11.50;52.60;;;;;;4924595;29;20032;-73
2023/04/05 18:03:46;;;;;;;6.60;4.32;;;11.40;53.00;;;;;;4926786;29;20082;-75
2023/04/05 18:06:12;;;;;;;6.95;4.25;;;11.30;53.70;;;;;;4911782;29;20321;-76
2023/04/05 18:08:38;;;;;;;6.07;4.30;;;11.20;53.70;;;;;;4926663;29;20040;-75
2023/04/05 18:11:04;;;;;;;5.13;4.18;;;11.00;53.20;;;;;;4927597;29;20031;-76
2023/04/05 18:13:30;;;;;;;7.68;4.45;;;10.90;53.20;;;;;;4926341;29;20221;-74